sensor_id;sensor_type;location;lat;lon;timestamp;P1;durP1;ratioP1;P2;durP2;ratioP2
31450;SDS011;18070;52.474;13.304;2024-01-15T00:02:09;39.22;;;36.03;;
31450;SDS011;18070;52.474;13.304;2024-01-15T00:04:39;33.28;;;30.00;;
31450;SDS011;18070;52.474;13.304;2024-01-15T00:07:05;34.83;;;31.33;;
31450;SDS011;18070;52.474;13.304;2024-01-15T00:09:31;26.23;;;23.38;;
31450;SDS011;18070;52.474;13.304;2024-01-15T00:11:58;36.15;;;32.88;;
31450;SDS011;18070;52.474;13.304;2024-01-15T00:14:24;33.90;;;30.60;;
31450;SDS011;18070;52.474;13.304;2024-01-15T00:16:50;30.08;;;26.67;;
31450;SDS011;18070;52.474;13.304;2024-01-15T00:19:17;33.38;;;30.33;;
31450;SDS011;18070;52.474;13.304;2024-01-15T00:21:43;31.20;;;28.35;;
31450;SDS011;18070;52.474;13.304;2024-01-15T00:24:09;29.95;;;26.90;;
31450;SDS011;18070;52.474;13.304;2024-01-15T00:26:35;31.25;;;27.50;;
31450;SDS011;18070;52.474;13.304;2024-01-15T00:29:01;34.30;;;31.08;;
31450;SDS011;18070;52.474;13.304;2024-01-15T00:31:28;29.98;;;27.02;;
31450;SDS011;18070;52.474;13.304;2024-01-15T00:33:55;33.33;;;30.25;;
31450;SDS011;18070;52.474;13.304;2024-01-15T00:36:21;30.17;;;27.38;;
31450;SDS011;18070;52.474;13.304;2024-01-15T00:38:47;33.10;;;29.80;;
31450;SDS011;18070;52.474;13.304;2024-01-15T00:41:13;30.73;;;27.60;;
31450;SDS011;18070;52.474;13.304;2024-01-15T00:43:39;31.50;;;28.50;;
31450;SDS011;18070;52.474;13.304;2024-01-15T00:46:05;30.83;;;27.85;;
31450;SDS011;18070;52.474;13.304;2024-01-15T00:48:32;30.92;;;28.13;;
31450;SDS011;18070;52.474;13.304;2024-01-15T00:50:58;32.17;;;29.05;;
31450;SDS011;18070;52.474;13.304;2024-01-15T00:53:25;31.98;;;28.92;;
31450;SDS011;18070;52.474;13.304;2024-01-15T00:55:51;34.42;;;31.10;;
31450;SDS011;18070;52.474;13.304;2024-01-15T00:58:18;34.72;;;31.88;;
31450;SDS011;18070;52.474;13.304;2024-01-15T01:00:44;27.42;;;24.95;;
31450;SDS011;18070;52.474;13.304;2024-01-15T01:03:10;30.30;;;27.40;;
31450;SDS011;18070;52.474;13.304;2024-01-15T01:05:36;32.83;;;29.55;;
31450;SDS011;18070;52.474;13.304;2024-01-15T01:08:02;36.20;;;32.95;;
31450;SDS011;18070;52.474;13.304;2024-01-15T01:10:28;31.98;;;28.92;;
31450;SDS011;18070;52.474;13.304;2024-01-15T01:12:55;36.05;;;32.65;;
31450;SDS011;18070;52.474;13.304;2024-01-15T01:15:21;34.10;;;30.95;;
31450;SDS011;18070;52.474;13.304;2024-01-15T01:17:47;33.33;;;30.05;;
31450;SDS011;18070;52.474;13.304;2024-01-15T01:20:13;32.22;;;29.15;;
31450;SDS011;18070;52.474;13.304;2024-01-15T01:22:40;31.42;;;28.58;;
31450;SDS011;18070;52.474;13.304;2024-01-15T01:25:06;32.42;;;29.52;;
31450;SDS011;18070;52.474;13.304;2024-01-15T01:27:32;34.60;;;31.17;;
31450;SDS011;18070;52.474;13.304;2024-01-15T01:29:58;31.45;;;28.30;;
31450;SDS011;18070;52.474;13.304;2024-01-15T01:32:25;31.90;;;28.75;;
31450;SDS011;18070;52.474;13.304;2024-01-15T01:34:51;31.73;;;28.42;;
31450;SDS011;18070;52.474;13.304;2024-01-15T01:37:17;31.13;;;27.52;;
31450;SDS011;18070;52.474;13.304;2024-01-15T01:39:43;32.05;;;28.80;;
31450;SDS011;18070;52.474;13.304;2024-01-15T01:42:09;31.27;;;28.08;;
31450;SDS011;18070;52.474;13.304;2024-01-15T01:44:35;28.38;;;25.30;;
31450;SDS011;18070;52.474;13.304;2024-01-15T01:47:01;35.20;;;25.23;;
31450;SDS011;18070;52.474;13.304;2024-01-15T01:49:28;30.50;;;27.35;;
31450;SDS011;18070;52.474;13.304;2024-01-15T01:51:57;28.55;;;25.40;;
31450;SDS011;18070;52.474;13.304;2024-01-15T01:54:24;29.63;;;24.52;;
31450;SDS011;18070;52.474;13.304;2024-01-15T01:56:51;29.70;;;23.60;;
31450;SDS011;18070;52.474;13.304;2024-01-15T01:59:17;28.67;;;25.45;;
31450;SDS011;18070;52.474;13.304;2024-01-15T02:01:44;27.67;;;24.67;;
31450;SDS011;18070;52.474;13.304;2024-01-15T02:04:11;40.28;;;36.50;;
31450;SDS011;18070;52.474;13.304;2024-01-15T02:06:37;29.90;;;23.35;;
31450;SDS011;18070;52.474;13.304;2024-01-15T02:09:03;28.42;;;25.38;;
31450;SDS011;18070;52.474;13.304;2024-01-15T02:11:30;31.67;;;28.58;;
31450;SDS011;18070;52.474;13.304;2024-01-15T02:13:56;31.05;;;27.95;;
31450;SDS011;18070;52.474;13.304;2024-01-15T02:16:23;30.08;;;27.27;;
31450;SDS011;18070;52.474;13.304;2024-01-15T02:18:49;33.97;;;29.20;;
31450;SDS011;18070;52.474;13.304;2024-01-15T02:21:15;29.42;;;25.80;;
31450;SDS011;18070;52.474;13.304;2024-01-15T02:23:41;29.10;;;24.77;;
31450;SDS011;18070;52.474;13.304;2024-01-15T02:26:07;27.77;;;25.02;;
31450;SDS011;18070;52.474;13.304;2024-01-15T02:28:33;30.58;;;27.65;;
31450;SDS011;18070;52.474;13.304;2024-01-15T02:31:00;32.10;;;28.88;;
31450;SDS011;18070;52.474;13.304;2024-01-15T02:33:26;27.15;;;23.23;;
31450;SDS011;18070;52.474;13.304;2024-01-15T02:35:52;29.15;;;26.35;;
31450;SDS011;18070;52.474;13.304;2024-01-15T02:38:18;30.88;;;28.08;;
31450;SDS011;18070;52.474;13.304;2024-01-15T02:40:44;30.83;;;27.98;;
31450;SDS011;18070;52.474;13.304;2024-01-15T02:43:11;29.88;;;26.83;;
31450;SDS011;18070;52.474;13.304;2024-01-15T02:45:38;36.75;;;33.40;;
31450;SDS011;18070;52.474;13.304;2024-01-15T02:48:04;31.27;;;28.52;;
31450;SDS011;18070;52.474;13.304;2024-01-15T02:50:31;27.25;;;24.90;;
31450;SDS011;18070;52.474;13.304;2024-01-15T02:52:57;31.90;;;29.02;;
31450;SDS011;18070;52.474;13.304;2024-01-15T02:55:23;28.50;;;25.75;;
31450;SDS011;18070;52.474;13.304;2024-01-15T02:57:49;29.42;;;24.83;;
31450;SDS011;18070;52.474;13.304;2024-01-15T03:00:15;29.10;;;26.40;;
31450;SDS011;18070;52.474;13.304;2024-01-15T03:02:43;28.63;;;26.05;;
31450;SDS011;18070;52.474;13.304;2024-01-15T03:05:10;27.17;;;24.42;;
31450;SDS011;18070;52.474;13.304;2024-01-15T03:07:36;28.15;;;25.45;;
31450;SDS011;18070;52.474;13.304;2024-01-15T03:10:02;27.48;;;24.77;;
31450;SDS011;18070;52.474;13.304;2024-01-15T03:12:28;27.20;;;24.25;;
31450;SDS011;18070;52.474;13.304;2024-01-15T03:14:54;32.33;;;29.38;;
31450;SDS011;18070;52.474;13.304;2024-01-15T03:17:20;29.65;;;26.95;;
31450;SDS011;18070;52.474;13.304;2024-01-15T03:19:46;29.90;;;27.05;;
31450;SDS011;18070;52.474;13.304;2024-01-15T03:22:14;27.08;;;24.58;;
31450;SDS011;18070;52.474;13.304;2024-01-15T03:24:40;24.77;;;22.40;;
31450;SDS011;18070;52.474;13.304;2024-01-15T03:27:06;26.52;;;23.88;;
31450;SDS011;18070;52.474;13.304;2024-01-15T03:29:32;25.25;;;22.88;;
31450;SDS011;18070;52.474;13.304;2024-01-15T03:31:58;26.67;;;24.17;;
31450;SDS011;18070;52.474;13.304;2024-01-15T03:34:24;32.53;;;29.92;;
31450;SDS011;18070;52.474;13.304;2024-01-15T03:36:51;27.38;;;21.38;;
31450;SDS011;18070;52.474;13.304;2024-01-15T03:39:17;28.27;;;25.10;;
31450;SDS011;18070;52.474;13.304;2024-01-15T03:41:43;24.10;;;17.98;;
31450;SDS011;18070;52.474;13.304;2024-01-15T03:44:09;28.48;;;15.82;;
31450;SDS011;18070;52.474;13.304;2024-01-15T03:46:35;24.52;;;21.98;;
31450;SDS011;18070;52.474;13.304;2024-01-15T03:49:01;25.17;;;22.55;;
31450;SDS011;18070;52.474;13.304;2024-01-15T03:51:27;19.45;;;16.42;;
31450;SDS011;18070;52.474;13.304;2024-01-15T03:53:53;19.77;;;16.77;;
31450;SDS011;18070;52.474;13.304;2024-01-15T03:56:19;19.20;;;16.05;;
31450;SDS011;18070;52.474;13.304;2024-01-15T03:58:45;30.63;;;27.90;;
31450;SDS011;18070;52.474;13.304;2024-01-15T04:01:11;29.88;;;26.88;;
31450;SDS011;18070;52.474;13.304;2024-01-15T04:03:37;20.55;;;18.27;;
31450;SDS011;18070;52.474;13.304;2024-01-15T04:06:03;24.33;;;19.08;;
31450;SDS011;18070;52.474;13.304;2024-01-15T04:08:30;26.35;;;24.05;;
31450;SDS011;18070;52.474;13.304;2024-01-15T04:10:56;21.52;;;15.93;;
31450;SDS011;18070;52.474;13.304;2024-01-15T04:13:22;22.35;;;17.50;;
31450;SDS011;18070;52.474;13.304;2024-01-15T04:15:48;24.25;;;18.30;;
31450;SDS011;18070;52.474;13.304;2024-01-15T04:18:15;25.75;;;23.27;;
31450;SDS011;18070;52.474;13.304;2024-01-15T04:20:42;18.42;;;16.48;;
31450;SDS011;18070;52.474;13.304;2024-01-15T04:23:08;16.42;;;14.80;;
31450;SDS011;18070;52.474;13.304;2024-01-15T04:25:34;17.70;;;15.80;;
31450;SDS011;18070;52.474;13.304;2024-01-15T04:28:01;19.00;;;16.70;;
31450;SDS011;18070;52.474;13.304;2024-01-15T04:30:27;19.55;;;16.00;;
31450;SDS011;18070;52.474;13.304;2024-01-15T04:32:53;21.55;;;13.90;;
31450;SDS011;18070;52.474;13.304;2024-01-15T04:35:19;27.60;;;13.23;;
31450;SDS011;18070;52.474;13.304;2024-01-15T04:37:45;17.02;;;15.18;;
31450;SDS011;18070;52.474;13.304;2024-01-15T04:40:11;20.95;;;13.00;;
31450;SDS011;18070;52.474;13.304;2024-01-15T04:42:37;17.38;;;13.30;;
31450;SDS011;18070;52.474;13.304;2024-01-15T04:45:03;19.38;;;17.50;;
31450;SDS011;18070;52.474;13.304;2024-01-15T04:47:29;16.02;;;12.48;;
31450;SDS011;18070;52.474;13.304;2024-01-15T04:49:55;13.52;;;10.70;;
31450;SDS011;18070;52.474;13.304;2024-01-15T04:52:21;18.58;;;12.02;;
31450;SDS011;18070;52.474;13.304;2024-01-15T04:54:48;19.05;;;13.98;;
31450;SDS011;18070;52.474;13.304;2024-01-15T04:57:15;15.80;;;12.57;;
31450;SDS011;18070;52.474;13.304;2024-01-15T04:59:41;15.75;;;12.63;;
31450;SDS011;18070;52.474;13.304;2024-01-15T05:02:07;14.40;;;11.07;;
31450;SDS011;18070;52.474;13.304;2024-01-15T05:04:33;15.73;;;12.85;;
31450;SDS011;18070;52.474;13.304;2024-01-15T05:06:59;20.90;;;12.27;;
31450;SDS011;18070;52.474;13.304;2024-01-15T05:09:25;22.30;;;17.60;;
31450;SDS011;18070;52.474;13.304;2024-01-15T05:11:51;32.13;;;28.92;;
31450;SDS011;18070;52.474;13.304;2024-01-15T05:14:17;34.38;;;31.85;;
31450;SDS011;18070;52.474;13.304;2024-01-15T05:16:46;34.63;;;31.75;;
31450;SDS011;18070;52.474;13.304;2024-01-15T05:19:13;34.00;;;30.85;;
31450;SDS011;18070;52.474;13.304;2024-01-15T05:21:39;25.85;;;23.58;;
31450;SDS011;18070;52.474;13.304;2024-01-15T05:24:05;19.95;;;16.10;;
31450;SDS011;18070;52.474;13.304;2024-01-15T05:26:31;17.80;;;12.43;;
31450;SDS011;18070;52.474;13.304;2024-01-15T05:28:57;13.90;;;12.43;;
31450;SDS011;18070;52.474;13.304;2024-01-15T05:31:23;17.52;;;14.05;;
31450;SDS011;18070;52.474;13.304;2024-01-15T05:33:49;18.13;;;15.73;;
31450;SDS011;18070;52.474;13.304;2024-01-15T05:36:15;17.27;;;14.45;;
31450;SDS011;18070;52.474;13.304;2024-01-15T05:38:41;17.45;;;15.75;;
31450;SDS011;18070;52.474;13.304;2024-01-15T05:41:07;18.60;;;14.68;;
31450;SDS011;18070;52.474;13.304;2024-01-15T05:43:33;15.80;;;13.57;;
31450;SDS011;18070;52.474;13.304;2024-01-15T05:45:59;20.80;;;18.50;;
31450;SDS011;18070;52.474;13.304;2024-01-15T05:48:25;21.67;;;19.58;;
31450;SDS011;18070;52.474;13.304;2024-01-15T05:50:51;15.57;;;13.95;;
31450;SDS011;18070;52.474;13.304;2024-01-15T05:53:20;21.77;;;14.95;;
31450;SDS011;18070;52.474;13.304;2024-01-15T05:55:46;24.20;;;22.05;;
31450;SDS011;18070;52.474;13.304;2024-01-15T05:58:12;19.00;;;17.45;;
31450;SDS011;18070;52.474;13.304;2024-01-15T06:00:38;28.10;;;25.27;;
31450;SDS011;18070;52.474;13.304;2024-01-15T06:03:04;29.77;;;27.33;;
31450;SDS011;18070;52.474;13.304;2024-01-15T06:05:30;30.50;;;28.15;;
31450;SDS011;18070;52.474;13.304;2024-01-15T06:07:56;22.85;;;18.55;;
31450;SDS011;18070;52.474;13.304;2024-01-15T06:10:22;23.13;;;20.10;;
31450;SDS011;18070;52.474;13.304;2024-01-15T06:12:48;35.58;;;32.42;;
31450;SDS011;18070;52.474;13.304;2024-01-15T06:15:14;27.70;;;23.98;;
31450;SDS011;18070;52.474;13.304;2024-01-15T06:17:40;27.10;;;24.55;;
31450;SDS011;18070;52.474;13.304;2024-01-15T06:20:07;17.75;;;16.13;;
31450;SDS011;18070;52.474;13.304;2024-01-15T06:22:34;16.92;;;15.25;;
31450;SDS011;18070;52.474;13.304;2024-01-15T06:25:01;21.85;;;19.85;;
31450;SDS011;18070;52.474;13.304;2024-01-15T06:27:28;28.60;;;25.52;;
31450;SDS011;18070;52.474;13.304;2024-01-15T06:29:54;22.92;;;21.05;;
31450;SDS011;18070;52.474;13.304;2024-01-15T06:32:21;31.63;;;28.52;;
31450;SDS011;18070;52.474;13.304;2024-01-15T06:34:47;18.60;;;11.05;;
31450;SDS011;18070;52.474;13.304;2024-01-15T06:37:13;15.43;;;13.88;;
31450;SDS011;18070;52.474;13.304;2024-01-15T06:39:39;16.27;;;13.00;;
31450;SDS011;18070;52.474;13.304;2024-01-15T06:42:05;14.85;;;12.38;;
31450;SDS011;18070;52.474;13.304;2024-01-15T06:44:31;23.33;;;21.40;;
31450;SDS011;18070;52.474;13.304;2024-01-15T06:46:57;17.20;;;13.73;;
31450;SDS011;18070;52.474;13.304;2024-01-15T06:49:27;20.60;;;15.15;;
31450;SDS011;18070;52.474;13.304;2024-01-15T06:51:54;18.70;;;14.15;;
31450;SDS011;18070;52.474;13.304;2024-01-15T06:54:20;20.38;;;12.63;;
31450;SDS011;18070;52.474;13.304;2024-01-15T06:56:46;16.40;;;14.45;;
31450;SDS011;18070;52.474;13.304;2024-01-15T06:59:12;14.82;;;12.27;;
31450;SDS011;18070;52.474;13.304;2024-01-15T07:01:38;25.83;;;21.35;;
31450;SDS011;18070;52.474;13.304;2024-01-15T07:04:05;28.20;;;19.95;;
31450;SDS011;18070;52.474;13.304;2024-01-15T07:06:31;19.67;;;15.00;;
31450;SDS011;18070;52.474;13.304;2024-01-15T07:08:57;22.35;;;15.90;;
31450;SDS011;18070;52.474;13.304;2024-01-15T07:11:23;15.63;;;14.20;;
31450;SDS011;18070;52.474;13.304;2024-01-15T07:13:49;19.35;;;16.45;;
31450;SDS011;18070;52.474;13.304;2024-01-15T07:16:15;15.63;;;11.73;;
31450;SDS011;18070;52.474;13.304;2024-01-15T07:18:41;15.98;;;11.63;;
31450;SDS011;18070;52.474;13.304;2024-01-15T07:21:07;15.90;;;10.73;;
31450;SDS011;18070;52.474;13.304;2024-01-15T07:23:34;19.33;;;10.48;;
31450;SDS011;18070;52.474;13.304;2024-01-15T07:26:00;16.80;;;10.10;;
31450;SDS011;18070;52.474;13.304;2024-01-15T07:28:28;16.33;;;10.10;;
31450;SDS011;18070;52.474;13.304;2024-01-15T07:30:54;13.95;;;9.18;;
31450;SDS011;18070;52.474;13.304;2024-01-15T07:33:20;25.15;;;22.63;;
31450;SDS011;18070;52.474;13.304;2024-01-15T07:35:46;17.15;;;9.48;;
31450;SDS011;18070;52.474;13.304;2024-01-15T07:38:12;14.00;;;11.20;;
31450;SDS011;18070;52.474;13.304;2024-01-15T07:40:38;16.27;;;10.82;;
31450;SDS011;18070;52.474;13.304;2024-01-15T07:43:05;22.58;;;11.57;;
31450;SDS011;18070;52.474;13.304;2024-01-15T07:45:31;15.35;;;12.60;;
31450;SDS011;18070;52.474;13.304;2024-01-15T07:47:57;18.63;;;10.80;;
31450;SDS011;18070;52.474;13.304;2024-01-15T07:50:23;21.55;;;14.73;;
31450;SDS011;18070;52.474;13.304;2024-01-15T07:52:49;21.42;;;11.98;;
31450;SDS011;18070;52.474;13.304;2024-01-15T07:55:15;16.30;;;7.30;;
31450;SDS011;18070;52.474;13.304;2024-01-15T07:57:41;14.82;;;10.80;;
31450;SDS011;18070;52.474;13.304;2024-01-15T08:00:07;16.67;;;11.07;;
31450;SDS011;18070;52.474;13.304;2024-01-15T08:02:34;19.30;;;11.13;;
31450;SDS011;18070;52.474;13.304;2024-01-15T08:05:00;14.90;;;13.27;;
31450;SDS011;18070;52.474;13.304;2024-01-15T08:07:26;14.15;;;8.57;;
31450;SDS011;18070;52.474;13.304;2024-01-15T08:09:52;12.48;;;9.88;;
31450;SDS011;18070;52.474;13.304;2024-01-15T08:12:20;20.55;;;11.85;;
31450;SDS011;18070;52.474;13.304;2024-01-15T08:14:47;13.75;;;7.65;;
31450;SDS011;18070;52.474;13.304;2024-01-15T08:17:13;14.90;;;9.05;;
31450;SDS011;18070;52.474;13.304;2024-01-15T08:19:39;15.43;;;11.40;;
31450;SDS011;18070;52.474;13.304;2024-01-15T08:22:06;20.23;;;10.27;;
31450;SDS011;18070;52.474;13.304;2024-01-15T08:24:32;20.13;;;15.35;;
31450;SDS011;18070;52.474;13.304;2024-01-15T08:26:58;20.10;;;16.15;;
31450;SDS011;18070;52.474;13.304;2024-01-15T08:29:24;14.35;;;12.60;;
31450;SDS011;18070;52.474;13.304;2024-01-15T08:31:50;14.13;;;12.73;;
31450;SDS011;18070;52.474;13.304;2024-01-15T08:34:16;20.33;;;14.15;;
31450;SDS011;18070;52.474;13.304;2024-01-15T08:36:42;37.15;;;34.50;;
31450;SDS011;18070;52.474;13.304;2024-01-15T08:39:08;13.02;;;7.88;;
31450;SDS011;18070;52.474;13.304;2024-01-15T08:41:34;14.10;;;11.68;;
31450;SDS011;18070;52.474;13.304;2024-01-15T08:44:00;14.85;;;10.52;;
31450;SDS011;18070;52.474;13.304;2024-01-15T08:46:28;12.38;;;11.18;;
31450;SDS011;18070;52.474;13.304;2024-01-15T08:48:54;12.07;;;8.55;;
31450;SDS011;18070;52.474;13.304;2024-01-15T08:51:20;13.57;;;9.68;;
31450;SDS011;18070;52.474;13.304;2024-01-15T08:53:46;18.33;;;12.80;;
31450;SDS011;18070;52.474;13.304;2024-01-15T08:56:12;14.35;;;12.57;;
31450;SDS011;18070;52.474;13.304;2024-01-15T08:58:38;13.18;;;11.82;;
31450;SDS011;18070;52.474;13.304;2024-01-15T09:01:04;17.20;;;9.82;;
31450;SDS011;18070;52.474;13.304;2024-01-15T09:03:30;17.70;;;9.98;;
31450;SDS011;18070;52.474;13.304;2024-01-15T09:05:57;17.23;;;14.18;;
31450;SDS011;18070;52.474;13.304;2024-01-15T09:08:23;16.00;;;10.20;;
31450;SDS011;18070;52.474;13.304;2024-01-15T09:10:49;27.55;;;21.00;;
31450;SDS011;18070;52.474;13.304;2024-01-15T09:13:16;22.88;;;18.17;;
31450;SDS011;18070;52.474;13.304;2024-01-15T09:15:42;12.57;;;8.52;;
31450;SDS011;18070;52.474;13.304;2024-01-15T09:18:08;12.48;;;11.07;;
31450;SDS011;18070;52.474;13.304;2024-01-15T09:20:34;24.50;;;21.20;;
31450;SDS011;18070;52.474;13.304;2024-01-15T09:23:01;28.10;;;25.48;;
31450;SDS011;18070;52.474;13.304;2024-01-15T09:25:27;27.35;;;18.73;;
31450;SDS011;18070;52.474;13.304;2024-01-15T09:27:54;24.35;;;22.63;;
31450;SDS011;18070;52.474;13.304;2024-01-15T09:30:20;17.90;;;12.07;;
31450;SDS011;18070;52.474;13.304;2024-01-15T09:32:46;21.35;;;15.32;;
31450;SDS011;18070;52.474;13.304;2024-01-15T09:35:12;25.77;;;23.67;;
31450;SDS011;18070;52.474;13.304;2024-01-15T09:37:39;26.80;;;24.65;;
31450;SDS011;18070;52.474;13.304;2024-01-15T09:40:05;21.85;;;19.80;;
31450;SDS011;18070;52.474;13.304;2024-01-15T09:42:32;28.10;;;25.70;;
31450;SDS011;18070;52.474;13.304;2024-01-15T09:44:58;30.52;;;28.33;;
31450;SDS011;18070;52.474;13.304;2024-01-15T09:47:24;32.33;;;29.23;;
31450;SDS011;18070;52.474;13.304;2024-01-15T09:49:50;19.65;;;17.60;;
31450;SDS011;18070;52.474;13.304;2024-01-15T09:52:16;28.50;;;25.70;;
31450;SDS011;18070;52.474;13.304;2024-01-15T09:54:45;20.90;;;19.05;;
31450;SDS011;18070;52.474;13.304;2024-01-15T09:57:12;12.57;;;9.13;;
31450;SDS011;18070;52.474;13.304;2024-01-15T09:59:38;27.25;;;24.92;;
31450;SDS011;18070;52.474;13.304;2024-01-15T10:02:05;23.85;;;21.70;;
31450;SDS011;18070;52.474;13.304;2024-01-15T10:04:32;31.25;;;28.92;;
31450;SDS011;18070;52.474;13.304;2024-01-15T10:06:58;24.30;;;22.35;;
31450;SDS011;18070;52.474;13.304;2024-01-15T10:09:26;29.60;;;27.35;;
31450;SDS011;18070;52.474;13.304;2024-01-15T10:11:52;21.73;;;19.63;;
31450;SDS011;18070;52.474;13.304;2024-01-15T10:14:19;16.55;;;15.02;;
31450;SDS011;18070;52.474;13.304;2024-01-15T10:16:45;26.50;;;24.52;;
31450;SDS011;18070;52.474;13.304;2024-01-15T10:19:11;29.90;;;27.58;;
31450;SDS011;18070;52.474;13.304;2024-01-15T10:21:37;28.73;;;26.70;;
31450;SDS011;18070;52.474;13.304;2024-01-15T10:24:04;29.52;;;27.42;;
31450;SDS011;18070;52.474;13.304;2024-01-15T10:26:31;31.77;;;29.63;;
31450;SDS011;18070;52.474;13.304;2024-01-15T10:29:00;41.90;;;38.60;;
31450;SDS011;18070;52.474;13.304;2024-01-15T10:31:26;30.90;;;28.88;;
31450;SDS011;18070;52.474;13.304;2024-01-15T10:33:53;33.92;;;31.50;;
31450;SDS011;18070;52.474;13.304;2024-01-15T10:36:20;21.48;;;19.95;;
31450;SDS011;18070;52.474;13.304;2024-01-15T10:38:46;31.48;;;28.65;;
31450;SDS011;18070;52.474;13.304;2024-01-15T10:41:12;25.52;;;23.83;;
31450;SDS011;18070;52.474;13.304;2024-01-15T10:43:38;23.48;;;21.50;;
31450;SDS011;18070;52.474;13.304;2024-01-15T10:46:07;20.63;;;19.23;;
31450;SDS011;18070;52.474;13.304;2024-01-15T10:48:34;45.95;;;43.42;;
31450;SDS011;18070;52.474;13.304;2024-01-15T10:51:01;19.05;;;17.63;;
31450;SDS011;18070;52.474;13.304;2024-01-15T10:53:37;37.10;;;34.58;;
31450;SDS011;18070;52.474;13.304;2024-01-15T10:56:07;26.35;;;24.58;;
31450;SDS011;18070;52.474;13.304;2024-01-15T10:58:33;19.67;;;17.95;;
31450;SDS011;18070;52.474;13.304;2024-01-15T11:01:00;18.15;;;17.00;;
31450;SDS011;18070;52.474;13.304;2024-01-15T11:03:27;17.35;;;15.93;;
31450;SDS011;18070;52.474;13.304;2024-01-15T11:05:53;21.20;;;19.13;;
31450;SDS011;18070;52.474;13.304;2024-01-15T11:08:19;26.88;;;25.15;;
31450;SDS011;18070;52.474;13.304;2024-01-15T11:10:47;20.75;;;19.48;;
31450;SDS011;18070;52.474;13.304;2024-01-15T11:15:58;12.43;;;9.40;;
31450;SDS011;18070;52.474;13.304;2024-01-15T11:18:30;8.90;;;6.35;;
31450;SDS011;18070;52.474;13.304;2024-01-15T11:28:57;15.75;;;14.20;;
31450;SDS011;18070;52.474;13.304;2024-01-15T11:34:07;14.35;;;13.20;;
31450;SDS011;18070;52.474;13.304;2024-01-15T11:41:59;27.50;;;24.95;;
31450;SDS011;18070;52.474;13.304;2024-01-15T11:44:26;16.23;;;15.23;;
31450;SDS011;18070;52.474;13.304;2024-01-15T11:47:02;54.05;;;50.97;;
31450;SDS011;18070;52.474;13.304;2024-01-15T11:51:57;35.10;;;33.00;;
31450;SDS011;18070;52.474;13.304;2024-01-15T11:54:23;28.48;;;26.50;;
31450;SDS011;18070;52.474;13.304;2024-01-15T11:56:50;29.63;;;28.13;;
31450;SDS011;18070;52.474;13.304;2024-01-15T11:59:16;27.05;;;25.48;;
31450;SDS011;18070;52.474;13.304;2024-01-15T12:01:42;44.80;;;42.47;;
31450;SDS011;18070;52.474;13.304;2024-01-15T12:04:08;45.53;;;43.08;;
31450;SDS011;18070;52.474;13.304;2024-01-15T12:06:34;19.35;;;18.13;;
31450;SDS011;18070;52.474;13.304;2024-01-15T12:09:07;26.33;;;24.77;;
31450;SDS011;18070;52.474;13.304;2024-01-15T12:11:33;42.03;;;39.83;;
31450;SDS011;18070;52.474;13.304;2024-01-15T12:14:01;38.95;;;36.85;;
31450;SDS011;18070;52.474;13.304;2024-01-15T12:16:27;32.90;;;31.13;;
31450;SDS011;18070;52.474;13.304;2024-01-15T12:18:53;36.33;;;34.38;;
31450;SDS011;18070;52.474;13.304;2024-01-15T12:21:19;30.23;;;28.48;;
31450;SDS011;18070;52.474;13.304;2024-01-15T12:23:48;19.98;;;18.70;;
31450;SDS011;18070;52.474;13.304;2024-01-15T12:26:17;33.27;;;31.50;;
31450;SDS011;18070;52.474;13.304;2024-01-15T12:28:43;39.40;;;37.38;;
31450;SDS011;18070;52.474;13.304;2024-01-15T12:31:09;35.05;;;33.03;;
31450;SDS011;18070;52.474;13.304;2024-01-15T12:33:35;37.25;;;35.05;;
31450;SDS011;18070;52.474;13.304;2024-01-15T12:36:01;28.88;;;27.23;;
31450;SDS011;18070;52.474;13.304;2024-01-15T12:38:28;50.33;;;47.78;;
31450;SDS011;18070;52.474;13.304;2024-01-15T12:40:54;15.77;;;14.88;;
31450;SDS011;18070;52.474;13.304;2024-01-15T12:43:20;30.50;;;28.85;;
31450;SDS011;18070;52.474;13.304;2024-01-15T12:45:46;37.38;;;35.30;;
31450;SDS011;18070;52.474;13.304;2024-01-15T12:48:12;46.25;;;43.90;;
31450;SDS011;18070;52.474;13.304;2024-01-15T12:50:42;41.13;;;39.05;;
31450;SDS011;18070;52.474;13.304;2024-01-15T12:53:09;25.95;;;24.42;;
31450;SDS011;18070;52.474;13.304;2024-01-15T12:55:35;35.70;;;33.72;;
31450;SDS011;18070;52.474;13.304;2024-01-15T12:58:01;53.08;;;50.25;;
31450;SDS011;18070;52.474;13.304;2024-01-15T13:00:27;31.17;;;29.50;;
31450;SDS011;18070;52.474;13.304;2024-01-15T13:02:53;35.95;;;33.95;;
31450;SDS011;18070;52.474;13.304;2024-01-15T13:05:20;36.80;;;34.67;;
31450;SDS011;18070;52.474;13.304;2024-01-15T13:07:46;38.92;;;36.90;;
31450;SDS011;18070;52.474;13.304;2024-01-15T13:10:12;51.10;;;48.33;;
31450;SDS011;18070;52.474;13.304;2024-01-15T13:12:38;37.08;;;35.03;;
31450;SDS011;18070;52.474;13.304;2024-01-15T13:15:04;37.10;;;34.95;;
31450;SDS011;18070;52.474;13.304;2024-01-15T13:17:31;27.25;;;25.73;;
31450;SDS011;18070;52.474;13.304;2024-01-15T13:19:57;49.88;;;47.13;;
31450;SDS011;18070;52.474;13.304;2024-01-15T13:22:23;41.03;;;38.83;;
31450;SDS011;18070;52.474;13.304;2024-01-15T13:24:55;37.25;;;35.05;;
31450;SDS011;18070;52.474;13.304;2024-01-15T13:27:21;40.90;;;38.58;;
31450;SDS011;18070;52.474;13.304;2024-01-15T13:29:47;32.88;;;31.08;;
31450;SDS011;18070;52.474;13.304;2024-01-15T13:32:13;33.67;;;31.75;;
31450;SDS011;18070;52.474;13.304;2024-01-15T13:34:43;18.80;;;17.60;;
31450;SDS011;18070;52.474;13.304;2024-01-15T13:37:09;40.72;;;38.30;;
31450;SDS011;18070;52.474;13.304;2024-01-15T13:39:35;40.03;;;37.72;;
31450;SDS011;18070;52.474;13.304;2024-01-15T13:42:01;34.17;;;32.22;;
31450;SDS011;18070;52.474;13.304;2024-01-15T13:44:27;47.85;;;45.08;;
31450;SDS011;18070;52.474;13.304;2024-01-15T13:46:53;51.33;;;48.33;;
31450;SDS011;18070;52.474;13.304;2024-01-15T13:49:20;44.65;;;42.05;;
31450;SDS011;18070;52.474;13.304;2024-01-15T13:51:46;48.55;;;45.88;;
31450;SDS011;18070;52.474;13.304;2024-01-15T13:54:12;25.90;;;23.95;;
31450;SDS011;18070;52.474;13.304;2024-01-15T13:56:38;43.35;;;40.70;;
31450;SDS011;18070;52.474;13.304;2024-01-15T13:59:04;44.72;;;41.53;;
31450;SDS011;18070;52.474;13.304;2024-01-15T14:01:30;62.08;;;58.35;;
31450;SDS011;18070;52.474;13.304;2024-01-15T14:03:56;53.22;;;50.03;;
31450;SDS011;18070;52.474;13.304;2024-01-15T14:06:23;54.28;;;51.35;;
31450;SDS011;18070;52.474;13.304;2024-01-15T14:08:50;51.88;;;48.85;;
31450;SDS011;18070;52.474;13.304;2024-01-15T14:11:16;47.85;;;44.10;;
31450;SDS011;18070;52.474;13.304;2024-01-15T14:13:42;60.05;;;56.55;;
31450;SDS011;18070;52.474;13.304;2024-01-15T14:16:08;34.90;;;32.65;;
31450;SDS011;18070;52.474;13.304;2024-01-15T14:18:34;59.72;;;56.47;;
31450;SDS011;18070;52.474;13.304;2024-01-15T14:21:01;46.42;;;43.35;;
31450;SDS011;18070;52.474;13.304;2024-01-15T14:23:27;47.15;;;44.42;;
31450;SDS011;18070;52.474;13.304;2024-01-15T14:25:53;44.55;;;42.00;;